Time;durP1;ratioP1;P1;durP2;ratioP2;P2;SDS_P1;SDS_P2;PMS_P1;PMS_P2;Temp;Humidity;BMP_temperature;BMP_pressure;BME280_temperature;BME280_humidity;BME280_pressure;Samples;Min_cycle;Max_cycle;Signal;HPM_P1;HPM_P2
2022/12/01 00:01:10;;;;;;;0.80;0.80;;;;;;;6.21;65.31;95124.59;5040898;28;20215;-62
2022/12/01 00:03:35;;;;;;;1.37;0.90;;;;;;;6.25;65.48;95124.22;5045669;28;20217;-63
2022/12/01 00:06:04;;;;;;;1.27;0.90;;;;;;;6.29;65.57;95130.88;5042200;28;20229;-63
2022/12/01 00:08:30;;;;;;;0.87;0.70;;;;;;;6.29;65.10;95125.63;5045184;28;20355;-63
2022/12/01 00:11:06;;;;;;;1.40;0.90;;;;;;;6.25;65.06;95129.44;5041622;28;20189;-63
2022/12/01 00:13:33;;;;;;;1.17;1.07;;;;;;;6.26;65.59;95125.06;5049235;28;20211;-63
2022/12/01 00:16:16;;;;;;;0.87;0.83;;;;;;;6.23;64.89;95117.44;5045563;28;20217;-63
2022/12/01 00:18:43;;;;;;;1.40;1.00;;;;;;;6.22;65.39;95108.78;5041531;28;20233;-63
2022/12/01 00:21:16;;;;;;;1.97;1.20;;;;;;;6.18;65.01;95110.84;5043450;28;20256;-63
2022/12/01 00:23:43;;;;;;;1.13;1.00;;;;;;;6.31;64.52;95107.25;5047982;28;20217;-63
2022/12/01 00:26:08;;;;;;;1.83;1.30;;;;;;;6.30;64.45;95101.16;5044190;28;20207;-63
2022/12/01 00:28:34;;;;;;;1.27;1.00;;;;;;;6.19;64.28;95115.09;5042774;28;20186;-63
2022/12/01 00:30:59;;;;;;;0.97;0.97;;;;;;;6.24;64.61;95111.28;5045698;28;20210;-63
2022/12/01 00:33:24;;;;;;;0.90;0.90;;;;;;;6.34;64.56;95112.22;5047060;28;20217;-63
2022/12/01 00:35:57;;;;;;;0.80;0.80;;;;;;;6.41;64.19;95115.97;5048050;28;20221;-63
2022/12/01 00:38:22;;;;;;;0.80;0.80;;;;;;;6.23;64.28;95113.09;5043591;28;20225;-63
2022/12/01 00:40:48;;;;;;;0.53;0.53;;;;;;;6.23;64.65;95109.63;5046083;28;20231;-63
2022/12/01 00:43:13;;;;;;;1.23;0.70;;;;;;;6.30;64.37;95116.00;5037763;28;20225;-64
2022/12/01 00:45:39;;;;;;;1.13;0.90;;;;;;;6.24;64.41;95111.28;5043324;28;20213;-63
2022/12/01 00:48:04;;;;;;;1.33;0.87;;;;;;;6.22;64.03;95115.81;5039830;28;20249;-63
2022/12/01 00:50:29;;;;;;;1.43;0.63;;;;;;;6.22;64.23;95105.34;5044150;28;20221;-63
2022/12/01 00:52:55;;;;;;;1.50;0.70;;;;;;;6.27;64.54;95105.81;5042014;28;20277;-63
2022/12/01 00:55:20;;;;;;;1.03;0.80;;;;;;;6.22;64.31;95103.56;5045631;28;20182;-63
2022/12/01 01:00:39;;;;;;;0.70;0.70;;;;;;;6.24;64.29;95100.84;5046154;28;20283;-63
2022/12/01 01:03:08;;;;;;;1.77;0.80;;;;;;;6.28;64.16;95102.25;5041104;28;20224;-62
2022/12/01 01:05:38;;;;;;;0.70;0.70;;;;;;;6.15;64.79;95098.03;5043487;28;20222;-63
2022/12/01 01:08:09;;;;;;;0.83;0.83;;;;;;;6.19;64.68;95104.66;5044247;28;20197;-63
2022/12/01 01:10:39;;;;;;;0.80;0.80;;;;;;;6.13;65.12;95096.50;5041342;28;20190;-63
2022/12/01 01:13:04;;;;;;;1.57;0.80;;;;;;;6.09;65.08;95097.66;5026167;28;20293;-63
2022/12/01 01:15:30;;;;;;;1.40;0.80;;;;;;;6.19;65.31;95102.03;5025490;28;20230;-62
2022/12/01 01:17:55;;;;;;;0.90;0.70;;;;;;;6.14;65.89;95091.13;5033229;28;20233;-62
2022/12/01 01:20:21;;;;;;;0.93;0.70;;;;;;;6.12;65.70;95089.59;5046394;28;20221;-62
2022/12/01 01:22:46;;;;;;;1.30;1.00;;;;;;;6.15;65.81;95094.59;5042863;28;20213;-66
2022/12/01 01:25:12;;;;;;;0.60;0.60;;;;;;;6.13;65.95;95089.47;5045680;28;20284;-66
2022/12/01 01:27:37;;;;;;;0.70;0.70;;;;;;;6.12;65.84;95093.06;5041006;28;20280;-66
2022/12/01 01:30:03;;;;;;;1.00;0.80;;;;;;;6.15;65.97;95086.75;5039399;28;20278;-67
2022/12/01 01:32:28;;;;;;;0.80;0.80;;;;;;;6.19;65.64;95090.75;5037466;28;20226;-67
2022/12/01 01:34:54;;;;;;;0.70;0.70;;;;;;;6.19;66.33;95083.75;5043111;28;20213;-67
2022/12/01 01:37:19;;;;;;;1.10;1.00;;;;;;;6.14;66.41;95079.84;5045035;28;20190;-68
2022/12/01 01:39:45;;;;;;;0.87;0.87;;;;;;;6.27;66.35;95090.16;5040804;28;20351;-67
2022/12/01 01:42:12;;;;;;;0.80;0.80;;;;;;;6.28;65.99;95079.59;5056786;28;20222;-63
2022/12/01 01:44:58;;;;;;;0.70;0.70;;;;;;;6.12;66.53;95076.53;5041873;28;20257;-64
2022/12/01 01:47:29;;;;;;;1.33;0.67;;;;;;;6.14;67.00;95075.47;5041202;28;20229;-64
2022/12/01 01:49:59;;;;;;;0.70;0.70;;;;;;;6.23;66.47;95075.66;5044189;28;20225;-63
2022/12/01 01:52:32;;;;;;;0.97;0.50;;;;;;;6.29;66.27;95072.59;5041868;28;20270;-63
2022/12/01 01:54:59;;;;;;;0.83;0.60;;;;;;;6.27;66.30;95066.66;5029256;28;20252;-64
2022/12/01 01:57:31;;;;;;;0.50;0.50;;;;;;;6.25;66.35;95064.16;5037904;28;20222;-64
2022/12/01 02:00:03;;;;;;;0.60;0.60;;;;;;;6.10;66.94;95070.63;5043326;28;20273;-63
2022/12/01 02:02:30;;;;;;;0.80;0.77;;;;;;;6.08;66.82;95068.13;5047974;28;20228;-63
2022/12/01 02:05:01;;;;;;;0.67;0.67;;;;;;;6.06;66.58;95062.19;5047526;28;20189;-64
2022/12/01 02:07:26;;;;;;;1.00;0.60;;;;;;;6.08;67.14;95060.31;5063069;28;20186;-64
2022/12/01 02:09:53;;;;;;;0.50;0.50;;;;;;;6.06;67.21;95056.97;5043154;28;20229;-63
2022/12/01 02:12:33;;;;;;;0.50;0.50;;;;;;;6.13;67.09;95055.53;5040054;28;20238;-63
2022/12/01 02:15:05;;;;;;;0.40;0.40;;;;;;;6.20;66.89;95061.09;5040651;28;20281;-64
2022/12/01 02:17:43;;;;;;;0.50;0.50;;;;;;;6.13;66.90;95059.94;5044351;28;20217;-63
2022/12/01 02:20:30;;;;;;;0.60;0.60;;;;;;;6.04;67.32;95050.22;5060670;28;20276;-63
2022/12/01 02:23:13;;;;;;;0.63;0.63;;;;;;;5.85;67.69;95056.06;5047240;28;20280;-63
2022/12/01 02:25:53;;;;;;;0.67;0.67;;;;;;;5.90;67.82;95056.50;5039591;28;20198;-63
2022/12/01 02:28:45;;;;;;;0.33;0.33;;;;;;;5.97;67.93;95052.50;5046787;28;20237;-63
2022/12/01 02:31:36;;;;;;;0.70;0.70;;;;;;;6.02;67.87;95052.16;5037867;28;20264;-63
2022/12/01 02:34:09;;;;;;;1.07;0.50;;;;;;;5.96;67.97;95051.69;5049140;28;20221;-63
2022/12/01 02:36:49;;;;;;;1.30;0.67;;;;;;;5.82;68.91;95049.28;5023647;28;20284;-63
2022/12/01 02:39:35;;;;;;;3.83;0.73;;;;;;;5.93;68.21;95056.25;5036999;28;20233;-62
2022/12/01 02:45:17;;;;;;;0.90;0.50;;;;;;;5.94;67.86;95039.72;5031181;28;20237;-64
2022/12/01 02:47:44;;;;;;;0.47;0.47;;;;;;;5.92;67.87;95045.00;5047241;28;20217;-64
2022/12/01 02:50:12;;;;;;;0.73;0.60;;;;;;;5.95;67.21;95050.00;5042835;28;20236;-63
2022/12/01 02:52:39;;;;;;;0.60;0.60;;;;;;;5.92;67.92;95044.19;5047725;28;20692;-64
2022/12/01 02:55:04;;;;;;;0.70;0.70;;;;;;;5.97;67.49;95049.91;5041581;28;20260;-64
2022/12/01 02:57:30;;;;;;;0.97;0.70;;;;;;;5.95;67.67;95054.41;5044530;28;20221;-63
2022/12/01 02:59:57;;;;;;;0.93;0.50;;;;;;;6.07;67.83;95044.78;5043366;28;20231;-63
2022/12/01 03:02:42;;;;;;;0.53;0.53;;;;;;;5.91;68.05;95040.75;5044788;28;20316;-63
2022/12/01 03:05:44;;;;;;;0.40;0.40;;;;;;;6.02;68.03;95058.19;5047158;28;20232;-64
2022/12/01 03:08:44;;;;;;;0.70;0.70;;;;;;;5.98;67.90;95051.53;5039183;28;20332;-64
2022/12/01 03:11:25;;;;;;;0.70;0.70;;;;;;;5.96;68.00;95046.47;5045643;28;20233;-64
2022/12/01 03:14:15;;;;;;;0.70;0.60;;;;;;;5.97;68.19;95052.50;5044056;28;20199;-65
2022/12/01 03:16:49;;;;;;;1.30;0.60;;;;;;;5.98;67.96;95048.94;5044756;28;20186;-64
2022/12/01 03:19:29;;;;;;;0.87;0.50;;;;;;;6.03;67.71;95053.78;5045189;28;20279;-64
2022/12/01 03:22:11;;;;;;;0.70;0.60;;;;;;;5.95;67.65;95057.00;5047450;28;20229;-63
2022/12/01 03:24:40;;;;;;;0.50;0.50;;;;;;;5.82;67.73;95051.09;5042717;28;20217;-63
2022/12/01 03:27:08;;;;;;;0.50;0.50;;;;;;;5.92;67.75;95057.22;5043960;28;20225;-62
2022/12/01 03:29:42;;;;;;;0.60;0.60;;;;;;;5.91;67.38;95050.38;5044323;28;20218;-63
2022/12/01 03:32:23;;;;;;;0.93;0.60;;;;;;;5.94;67.45;95056.19;5045293;28;20181;-62
2022/12/01 03:34:51;;;;;;;1.30;0.70;;;;;;;5.93;67.13;95045.81;5043179;28;20197;-63
2022/12/01 03:37:26;;;;;;;0.80;0.80;;;;;;;6.03;67.11;95041.56;5041681;28;20309;-63
2022/12/01 03:39:56;;;;;;;0.73;0.60;;;;;;;6.01;66.93;95048.69;5052386;28;20236;-62
2022/12/01 03:42:45;;;;;;;0.93;0.70;;;;;;;6.04;67.26;95042.38;5043071;28;20283;-64
2022/12/01 03:45:18;;;;;;;0.50;0.50;;;;;;;5.92;67.18;95038.97;5034549;28;20256;-63
2022/12/01 03:47:44;;;;;;;0.70;0.70;;;;;;;5.91;67.62;95039.94;5015903;28;20219;-64
2022/12/01 03:50:12;;;;;;;0.33;0.33;;;;;;;5.91;67.38;95034.72;5020251;28;20226;-64
2022/12/01 03:53:02;;;;;;;0.70;0.50;;;;;;;5.95;67.46;95043.97;5020360;28;20186;-63
2022/12/01 03:55:30;;;;;;;0.47;0.47;;;;;;;5.96;67.58;95046.47;5036167;28;20228;-64
2022/12/01 03:58:16;;;;;;;0.70;0.60;;;;;;;6.01;67.30;95045.25;5033641;28;20222;-64
2022/12/01 04:00:42;;;;;;;1.63;0.63;;;;;;;5.95;67.65;95036.13;5022576;28;20226;-64
2022/12/01 04:03:17;;;;;;;0.40;0.40;;;;;;;6.07;67.32;95037.78;5030506;28;20230;-64
2022/12/01 04:05:42;;;;;;;0.60;0.60;;;;;;;6.00;68.11;95044.44;5041911;28;20224;-64
2022/12/01 04:08:07;;;;;;;0.50;0.50;;;;;;;5.91;68.18;95039.94;5044258;28;20228;-65
2022/12/01 04:10:33;;;;;;;0.93;0.80;;;;;;;5.72;69.25;95037.94;5036883;28;20265;-64
2022/12/01 04:12:59;;;;;;;1.23;0.60;;;;;;;5.73;69.06;95037.81;5043913;28;20236;-65
2022/12/01 04:15:25;;;;;;;0.60;0.60;;;;;;;5.84;69.38;95046.56;5041635;28;20214;-64
2022/12/01 04:17:51;;;;;;;0.50;0.50;;;;;;;5.87;69.03;95043.72;5040084;28;20275;-64
2022/12/01 04:20:16;;;;;;;1.77;0.60;;;;;;;5.84;68.84;95039.56;5037012;28;20225;-64
2022/12/01 04:22:42;;;;;;;0.83;0.70;;;;;;;5.86;69.10;95035.06;5021972;28;20202;-65
2022/12/01 04:25:09;;;;;;;1.20;0.83;;;;;;;5.90;69.00;95046.91;5043350;28;20342;-64
2022/12/01 04:27:34;;;;;;;1.03;0.60;;;;;;;5.91;69.44;95045.97;5038059;28;20251;-64
2022/12/01 04:30:00;;;;;;;0.63;0.63;;;;;;;5.77;70.07;95041.00;5041591;28;20225;-64
2022/12/01 04:32:25;;;;;;;0.60;0.60;;;;;;;5.69;70.08;95046.84;5032503;28;20249;-64
2022/12/01 04:34:51;;;;;;;0.90;0.70;;;;;;;5.62;70.89;95048.28;5041339;28;20193;-64
2022/12/01 04:37:17;;;;;;;1.37;0.80;;;;;;;5.61;70.59;95051.00;5040446;28;20267;-65
2022/12/01 04:39:43;;;;;;;0.70;0.70;;;;;;;5.73;70.44;95060.47;5051762;28;20218;-63
2022/12/01 04:42:09;;;;;;;0.90;0.90;;;;;;;5.55;70.80;95047.09;5040835;28;20244;-63
2022/12/01 04:44:35;;;;;;;1.47;0.90;;;;;;;5.62;70.85;95058.72;5046956;28;20221;-63
2022/12/01 04:47:02;;;;;;;1.20;1.00;;;;;;;5.73;70.74;95063.09;5039867;28;20278;-63
2022/12/01 04:49:27;;;;;;;0.70;0.70;;;;;;;5.59;70.60;95060.75;5037706;28;20206;-63
2022/12/01 04:51:53;;;;;;;0.80;0.80;;;;;;;5.64;70.55;95053.34;5038806;28;20331;-64
2022/12/01 04:54:18;;;;;;;1.33;0.90;;;;;;;5.63;70.97;95062.16;5043582;28;20221;-64
2022/12/01 04:56:44;;;;;;;1.67;1.10;;;;;;;5.69;70.14;95059.03;5045195;28;20222;-63
2022/12/01 04:59:10;;;;;;;1.80;0.90;;;;;;;5.56;70.60;95058.34;5037737;28;20242;-62
2022/12/01 05:01:35;;;;;;;0.93;0.87;;;;;;;5.61;70.42;95057.03;5042931;28;20194;-67
2022/12/01 05:04:01;;;;;;;1.00;0.90;;;;;;;5.68;70.47;95057.41;5043917;28;20317;-67
2022/12/01 05:06:28;;;;;;;1.03;0.93;;;;;;;5.58;70.87;95062.50;5036132;28;20268;-67
2022/12/01 05:08:56;;;;;;;1.23;0.80;;;;;;;5.58;70.82;95054.66;5042091;28;20229;-67
2022/12/01 05:11:23;;;;;;;0.80;0.70;;;;;;;5.58;71.55;95053.84;5041746;28;20221;-67
2022/12/01 05:13:49;;;;;;;0.73;0.73;;;;;;;5.41;71.78;95063.00;5035108;28;20192;-67
2022/12/01 05:16:19;;;;;;;1.10;0.90;;;;;;;5.53;71.34;95069.84;5036138;28;20237;-68
2022/12/01 05:18:49;;;;;;;1.30;1.20;;;;;;;5.27;71.61;95070.09;5031811;28;20226;-67
2022/12/01 05:21:16;;;;;;;1.43;1.07;;;;;;;5.45;71.52;95073.06;5043416;28;20273;-67
2022/12/01 05:23:43;;;;;;;2.30;1.10;;;;;;;5.59;71.03;95064.16;5046800;28;20229;-67
2022/12/01 05:26:09;;;;;;;1.07;1.00;;;;;;;5.59;70.40;95066.78;5041434;28;20190;-67
2022/12/01 05:28:34;;;;;;;0.83;0.83;;;;;;;5.62;70.63;95071.75;5042484;28;20219;-68
2022/12/01 05:31:00;;;;;;;0.83;0.80;;;;;;;5.61;69.98;95062.25;5047095;28;20331;-67
2022/12/01 05:33:26;;;;;;;1.70;0.80;;;;;;;5.53;70.52;95070.69;5043053;28;20225;-67
2022/12/01 05:35:52;;;;;;;1.60;0.83;;;;;;;5.58;70.15;95075.53;5040757;28;20360;-68
2022/12/01 05:38:18;;;;;;;1.50;1.10;;;;;;;5.58;70.15;95072.94;5056587;28;20294;-67
2022/12/01 05:40:51;;;;;;;1.20;1.00;;;;;;;5.37;70.71;95070.22;5043386;28;20208;-66
2022/12/01 05:43:17;;;;;;;1.77;1.07;;;;;;;5.36;70.84;95070.34;5026848;28;20218;-67
2022/12/01 05:45:43;;;;;;;2.50;1.10;;;;;;;5.44;70.66;95070.56;5031424;28;20272;-68
2022/12/01 05:48:08;;;;;;;2.10;1.10;;;;;;;5.42;70.30;95064.66;5026482;28;20226;-67
2022/12/01 05:50:37;;;;;;;1.20;0.90;;;;;;;5.45;69.97;95072.22;5025258;28;20218;-71
2022/12/01 05:53:03;;;;;;;2.20;1.10;;;;;;;5.50;69.83;95068.31;5031204;28;20186;-68
2022/12/01 05:55:29;;;;;;;1.53;1.10;;;;;;;5.49;69.44;95079.69;5044392;28;20186;-67
2022/12/01 05:57:54;;;;;;;1.20;1.10;;;;;;;5.26;69.96;95073.66;5044396;28;20308;-67
2022/12/01 06:00:20;;;;;;;1.13;1.03;;;;;;;5.41;69.37;95073.44;5041754;28;20237;-67
2022/12/01 06:02:45;;;;;;;1.00;0.90;;;;;;;5.51;69.13;95072.59;5046397;28;20210;-67
2022/12/01 06:05:11;;;;;;;1.27;1.10;;;;;;;5.57;68.46;95075.69;5042538;28;20225;-67
2022/12/01 06:07:38;;;;;;;2.00;1.30;;;;;;;5.70;68.34;95078.97;5039881;28;20189;-67
2022/12/01 06:10:05;;;;;;;1.40;1.20;;;;;;;5.73;67.93;95076.13;5040661;28;20221;-66
2022/12/01 06:12:31;;;;;;;1.63;1.33;;;;;;;5.71;66.88;95073.63;5044995;28;20804;-67
2022/12/01 06:14:56;;;;;;;1.23;1.07;;;;;;;5.62;67.39;95076.16;5045922;28;20233;-67
2022/12/01 06:17:21;;;;;;;1.63;1.40;;;;;;;5.65;67.77;95081.94;5040208;28;20281;-67
2022/12/01 06:19:47;;;;;;;2.37;1.30;;;;;;;5.59;67.73;95082.44;5018807;28;20594;-67
2022/12/01 06:22:13;;;;;;;1.93;1.13;;;;;;;5.66;67.72;95077.56;5035965;28;20294;-68
2022/12/01 06:24:38;;;;;;;1.40;1.30;;;;;;;5.67;67.58;95081.84;5023621;28;20465;-70
2022/12/01 06:27:03;;;;;;;3.37;1.10;;;;;;;5.52;68.38;95076.03;5029871;28;20218;-70
2022/12/01 06:29:29;;;;;;;1.33;1.20;;;;;;;5.59;67.95;95076.41;5026298;28;20245;-70
2022/12/01 06:31:54;;;;;;;1.23;1.13;;;;;;;5.35;68.37;95081.72;5036610;28;20187;-71
2022/12/01 06:34:20;;;;;;;2.70;1.40;;;;;;;5.42;68.86;95069.84;5039238;28;20183;-71
2022/12/01 06:36:45;;;;;;;2.20;1.83;;;;;;;5.44;69.48;95065.38;5017348;28;20218;-71
2022/12/01 06:39:10;;;;;;;2.20;1.40;;;;;;;5.51;69.14;95066.56;5025496;28;20321;-71
2022/12/01 06:41:37;;;;;;;2.23;1.50;;;;;;;5.44;68.92;95065.38;5023076;28;20230;-71
2022/12/01 06:44:03;;;;;;;2.13;1.30;;;;;;;5.59;68.66;95065.97;5025687;28;20225;-72
2022/12/01 06:46:28;;;;;;;1.53;1.20;;;;;;;5.63;68.09;95067.38;5041258;28;20178;-73
2022/12/01 06:48:54;;;;;;;1.73;1.30;;;;;;;5.66;67.91;95072.34;5041396;28;20220;-70
2022/12/01 06:51:19;;;;;;;2.03;1.30;;;;;;;5.50;68.28;95070.91;5045386;28;20324;-71
2022/12/01 06:53:45;;;;;;;2.13;1.20;;;;;;;5.63;67.92;95070.78;5039115;28;20217;-73
2022/12/01 06:56:11;;;;;;;1.57;1.30;;;;;;;5.67;67.34;95072.22;5036946;28;20233;-68
2022/12/01 06:58:36;;;;;;;1.67;1.33;;;;;;;5.55;67.60;95067.97;5037593;28;20269;-69
2022/12/01 07:01:09;;;;;;;1.47;1.07;;;;;;;5.71;67.84;95073.63;5042021;28;20217;-68
2022/12/01 07:03:35;;;;;;;1.40;1.30;;;;;;;5.58;67.25;95072.94;5035844;28;20246;-69
2022/12/01 07:06:00;;;;;;;1.57;1.30;;;;;;;5.57;67.46;95071.28;5039172;28;20241;-70
2022/12/01 07:08:28;;;;;;;2.70;1.43;;;;;;;5.67;67.59;95077.44;5037406;28;20229;-71
2022/12/01 07:10:56;;;;;;;2.57;1.60;;;;;;;5.73;67.42;95078.75;5040567;28;20178;-69
2022/12/01 07:13:22;;;;;;;1.10;1.00;;;;;;;5.68;67.21;95073.88;5041574;28;20189;-69
2022/12/01 07:15:47;;;;;;;1.57;1.33;;;;;;;5.77;67.14;95082.75;5044122;28;20698;-67
2022/12/01 07:18:12;;;;;;;2.10;1.20;;;;;;;5.87;66.87;95080.25;5039782;28;20214;-69
2022/12/01 07:20:38;;;;;;;1.43;1.27;;;;;;;5.58;67.04;95077.31;5045540;28;20229;-69
2022/12/01 07:23:03;;;;;;;2.37;1.33;;;;;;;5.61;66.81;95082.28;5032846;28;20193;-69
2022/12/01 07:25:29;;;;;;;3.47;1.30;;;;;;;5.33;67.58;95089.66;5043327;28;20204;-66
2022/12/01 07:27:54;;;;;;;1.87;1.57;;;;;;;5.27;69.10;95087.53;5042567;28;20225;-71
2022/12/01 07:30:19;;;;;;;2.70;1.40;;;;;;;5.41;67.72;95086.47;5043447;28;20244;-71
2022/12/01 07:32:45;;;;;;;1.13;1.03;;;;;;;5.48;67.37;95085.03;5034018;28;20263;-69
2022/12/01 07:35:10;;;;;;;1.23;1.13;;;;;;;5.60;66.63;95089.31;5040641;28;20270;-68
2022/12/01 07:37:36;;;;;;;2.80;1.57;;;;;;;5.70;66.62;95092.03;5041811;28;20186;-68
2022/12/01 07:40:01;;;;;;;2.60;1.60;;;;;;;5.76;66.19;95086.31;5042815;28;20313;-68
2022/12/01 07:42:27;;;;;;;2.03;1.83;;;;;;;5.81;66.32;95093.78;5032095;28;20214;-69
2022/12/01 07:44:52;;;;;;;2.43;1.93;;;;;;;5.93;65.82;95084.97;5027380;28;20225;-69
2022/12/01 07:47:17;;;;;;;2.03;1.10;;;;;;;5.80;65.95;95092.13;5036030;28;20230;-69
2022/12/01 07:49:43;;;;;;;1.87;1.20;;;;;;;5.75;65.68;95088.09;5018500;28;20183;-68
2022/12/01 07:52:08;;;;;;;3.23;1.27;;;;;;;5.87;66.55;95085.47;5022938;28;20234;-69
2022/12/01 07:54:34;;;;;;;1.40;1.30;;;;;;;5.87;66.75;95093.31;5023760;28;20225;-67
2022/12/01 07:56:59;;;;;;;3.27;1.43;;;;;;;5.96;66.03;95090.84;5030366;28;20225;-70
2022/12/01 07:59:25;;;;;;;1.47;1.30;;;;;;;5.94;66.39;95089.28;5035693;28;20226;-68
2022/12/01 08:01:50;;;;;;;2.80;1.10;;;;;;;5.79;66.26;95090.47;5035512;28;20185;-64
2022/12/01 08:04:15;;;;;;;2.07;1.90;;;;;;;5.77;66.89;95090.56;5035817;28;20178;-65
2022/12/01 08:06:41;;;;;;;1.30;1.20;;;;;;;5.79;66.66;95093.06;5046709;28;20224;-64
2022/12/01 08:09:06;;;;;;;2.20;1.30;;;;;;;5.83;66.52;95087.50;5038196;28;20228;-65
2022/12/01 08:11:32;;;;;;;4.30;1.57;;;;;;;5.92;66.71;95096.38;5041209;28;20262;-64
2022/12/01 08:13:58;;;;;;;1.17;0.97;;;;;;;5.81;66.64;95094.63;5040023;28;20193;-65
2022/12/01 08:16:24;;;;;;;1.30;1.20;;;;;;;5.78;66.71;95086.22;5037704;28;20314;-65
2022/12/01 08:18:49;;;;;;;1.33;1.10;;;;;;;5.84;66.61;95096.16;5041695;28;20232;-66
2022/12/01 08:21:17;;;;;;;1.67;1.27;;;;;;;5.90;65.89;95098.28;5039402;28;20317;-65
2022/12/01 08:23:43;;;;;;;1.90;1.50;;;;;;;5.70;67.07;95086.81;5054735;28;20217;-66
2022/12/01 08:26:17;;;;;;;2.17;1.50;;;;;;;5.87;66.65;95088.09;5037154;28;20181;-66
2022/12/01 08:28:43;;;;;;;1.40;1.30;;;;;;;6.02;65.91;95102.56;5040282;28;20216;-65
2022/12/01 08:31:11;;;;;;;1.70;1.30;;;;;;;6.01;66.15;95094.84;5024139;28;20230;-65
2022/12/01 08:33:37;;;;;;;1.60;1.37;;;;;;;5.90;66.16;95090.44;5025095;28;20256;-65
2022/12/01 08:36:04;;;;;;;1.90;1.50;;;;;;;5.72;66.44;95101.41;5018209;28;20250;-64
2022/12/01 08:38:29;;;;;;;2.10;1.40;;;;;;;5.74;66.86;95096.88;5026983;28;20225;-63
2022/12/01 08:41:06;;;;;;;1.53;1.43;;;;;;;5.84;66.80;95093.53;5032677;28;20187;-65
2022/12/01 08:43:31;;;;;;;3.00;1.60;;;;;;;5.69;66.86;95091.22;5019512;28;20204;-64
2022/12/01 08:45:59;;;;;;;2.53;1.50;;;;;;;5.88;66.19;95094.94;5035496;28;20233;-65
2022/12/01 08:48:25;;;;;;;2.00;1.60;;;;;;;5.95;67.03;95093.56;5042131;28;20700;-65
2022/12/01 08:50:50;;;;;;;3.53;1.60;;;;;;;5.84;66.80;95089.16;5042174;28;20256;-63
2022/12/01 08:53:16;;;;;;;1.70;1.47;;;;;;;5.81;66.73;95093.78;5040936;28;20225;-65
2022/12/01 08:55:41;;;;;;;2.60;1.67;;;;;;;5.67;67.63;95092.28;5043511;28;20197;-63
2022/12/01 08:58:07;;;;;;;1.83;1.40;;;;;;;5.90;66.75;95087.84;5037945;28;20233;-64
2022/12/01 09:00:32;;;;;;;2.53;1.40;;;;;;;5.99;66.21;95087.16;5041104;28;20298;-64
2022/12/01 09:02:57;;;;;;;3.33;1.63;;;;;;;5.95;65.90;95080.50;5041553;28;20214;-63
2022/12/01 09:05:23;;;;;;;4.00;1.70;;;;;;;6.02;65.67;95080.84;5057414;28;20217;-63
2022/12/01 09:08:30;;;;;;;2.37;1.70;;;;;;;6.00;66.29;95083.56;5039959;28;20182;-63
2022/12/01 09:10:34;;;;;;;2.70;1.53;;;;;;;5.96;66.69;95075.19;5040342;28;20217;-65
2022/12/01 09:12:59;;;;;;;5.83;2.10;;;;;;;5.94;66.31;95074.47;5045604;28;20255;-65
2022/12/01 09:15:24;;;;;;;3.30;2.00;;;;;;;6.01;66.18;95080.00;5031445;28;20214;-64
2022/12/01 09:17:50;;;;;;;2.70;1.40;;;;;;;6.06;65.52;95070.03;5020812;28;20248;-64
2022/12/01 09:20:15;;;;;;;2.00;1.80;;;;;;;6.13;65.24;95073.81;5022025;28;20222;-64
2022/12/01 09:22:41;;;;;;;1.87;1.77;;;;;;;6.09;65.37;95067.16;5033545;28;20195;-64
2022/12/01 09:25:13;;;;;;;4.10;1.70;;;;;;;6.04;65.47;95069.34;5022938;28;20219;-62
2022/12/01 09:27:39;;;;;;;2.33;1.63;;;;;;;6.12;65.70;95066.94;5018742;28;20226;-63
2022/12/01 09:30:05;;;;;;;2.13;1.70;;;;;;;6.26;65.28;95063.22;5021390;28;20230;-64
2022/12/01 09:32:30;;;;;;;2.90;2.40;;;;;;;6.17;64.86;95058.72;5026774;28;20225;-64
2022/12/01 09:34:55;;;;;;;2.30;1.57;;;;;;;6.39;64.57;95063.88;5023755;28;20214;-64
2022/12/01 09:37:21;;;;;;;1.73;1.40;;;;;;;6.39;64.19;95053.44;5018647;28;20187;-64
2022/12/01 09:39:46;;;;;;;1.97;1.20;;;;;;;6.36;64.18;95066.75;5029167;28;20226;-64
2022/12/01 09:42:15;;;;;;;1.70;1.33;;;;;;;6.28;64.54;95056.09;5028405;28;20652;-63
2022/12/01 09:44:49;;;;;;;2.07;1.20;;;;;;;6.27;64.22;95054.41;5045120;28;20333;-65
2022/12/01 09:47:25;;;;;;;1.70;1.23;;;;;;;6.28;64.97;95056.09;5021135;28;20322;-63
2022/12/01 09:49:55;;;;;;;1.57;1.33;;;;;;;6.41;64.95;95053.28;5018540;28;20187;-63
2022/12/01 09:52:23;;;;;;;2.00;1.40;;;;;;;6.37;64.94;95054.50;5021431;28;20508;-63
2022/12/01 09:54:49;;;;;;;2.87;1.10;;;;;;;6.36;64.42;95048.47;5021014;28;20225;-64
2022/12/01 09:57:28;;;;;;;1.90;1.33;;;;;;;6.54;64.24;95053.13;5013491;28;20218;-62
2022/12/01 09:59:55;;;;;;;3.00;1.60;;;;;;;6.48;64.58;95040.56;5034582;28;20625;-65
2022/12/01 10:02:34;;;;;;;1.60;1.40;;;;;;;6.53;64.64;95043.63;5029129;28;20221;-63
2022/12/01 10:05:05;;;;;;;1.50;1.40;;;;;;;6.59;64.82;95036.09;5038855;28;20255;-65
2022/12/01 10:07:36;;;;;;;1.93;1.47;;;;;;;6.49;64.43;95037.00;5037307;28;20190;-64
2022/12/01 10:10:12;;;;;;;1.40;1.30;;;;;;;6.45;64.71;95036.44;5040955;28;20237;-63
2022/12/01 10:12:41;;;;;;;1.77;1.40;;;;;;;6.41;65.06;95029.78;5043805;28;20228;-62
2022/12/01 10:15:07;;;;;;;1.63;1.33;;;;;;;6.46;65.28;95027.63;5038131;28;20233;-64
2022/12/01 10:17:58;;;;;;;1.53;1.33;;;;;;;6.39;64.84;95024.69;5042936;28;20225;-64
2022/12/01 10:20:58;;;;;;;4.53;2.30;;;;;;;6.54;64.78;95038.28;5037507;28;20237;-64
2022/12/01 10:23:43;;;;;;;2.30;1.73;;;;;;;6.48;64.52;95033.56;5036084;28;20222;-63
2022/12/01 10:26:14;;;;;;;3.97;3.00;;;;;;;6.30;65.83;95040.28;5043870;28;20275;-62
2022/12/01 10:28:48;;;;;;;2.37;1.40;;;;;;;6.01;65.80;95024.38;5041162;28;20297;-62
2022/12/01 10:31:41;;;;;;;1.83;1.47;;;;;;;6.30;65.54;95022.81;5034650;28;20253;-64
2022/12/01 10:34:33;;;;;;;1.50;1.30;;;;;;;6.30;65.59;95028.06;5042225;28;20217;-64
2022/12/01 10:36:58;;;;;;;2.03;1.07;;;;;;;6.37;65.97;95028.41;5037874;28;20225;-65
2022/12/01 10:39:33;;;;;;;0.80;0.80;;;;;;;6.21;65.64;95025.38;5032680;28;20219;-65
2022/12/01 10:42:12;;;;;;;1.50;1.10;;;;;;;6.27;66.05;95024.88;5028762;28;20222;-64
2022/12/01 10:44:39;;;;;;;1.10;1.00;;;;;;;6.41;65.50;95016.72;5029482;28;20221;-64
2022/12/01 10:47:16;;;;;;;1.67;1.40;;;;;;;6.03;66.26;95020.69;5040175;28;20190;-64
2022/12/01 10:49:42;;;;;;;2.07;1.87;;;;;;;6.30;65.90;95027.22;5038631;28;20211;-66
2022/12/01 10:52:35;;;;;;;2.07;1.50;;;;;;;6.47;65.64;95021.47;5041978;28;20225;-64
2022/12/01 10:55:04;;;;;;;1.30;1.20;;;;;;;6.41;64.72;95019.34;5045579;28;20248;-63
2022/12/01 10:57:30;;;;;;;1.67;1.30;;;;;;;6.37;65.08;95023.16;5044161;28;20284;-64
2022/12/01 10:59:56;;;;;;;1.80;1.30;;;;;;;6.39;64.24;95021.28;5035513;28;20237;-64
2022/12/01 11:02:24;;;;;;;1.13;1.03;;;;;;;6.33;64.41;95026.97;5018003;28;20218;-64
2022/12/01 11:05:00;;;;;;;1.83;1.10;;;;;;;6.12;64.83;95022.56;5021968;28;20189;-64
2022/12/01 11:07:44;;;;;;;2.60;1.17;;;;;;;6.09;65.31;95014.13;5037337;28;20277;-65
2022/12/01 11:10:21;;;;;;;1.83;1.30;;;;;;;6.17;65.53;95012.59;5037435;28;20210;-64
2022/12/01 11:13:04;;;;;;;1.33;1.20;;;;;;;6.26;64.88;95015.41;5043258;28;20217;-65
2022/12/01 11:15:33;;;;;;;1.53;1.10;;;;;;;6.30;64.29;95022.81;5055306;28;20251;-65
2022/12/01 11:18:26;;;;;;;1.80;1.43;;;;;;;6.28;64.02;95005.63;5039397;28;20260;-65
2022/12/01 11:21:10;;;;;;;2.13;1.30;;;;;;;6.43;63.84;95008.78;5034566;28;20221;-65
2022/12/01 11:23:47;;;;;;;1.93;1.10;;;;;;;6.29;63.91;95009.91;5055777;28;20233;-65
2022/12/01 11:26:22;;;;;;;1.43;1.33;;;;;;;6.35;63.97;95012.84;5039697;28;20243;-64
2022/12/01 11:28:57;;;;;;;1.90;1.40;;;;;;;6.21;64.75;95013.16;5048237;28;20193;-64
2022/12/01 11:31:38;;;;;;;1.50;1.40;;;;;;;6.34;64.10;95002.53;5025279;28;20258;-64
2022/12/01 11:34:04;;;;;;;2.23;1.90;;;;;;;6.31;63.97;95006.22;5037657;28;20221;-64
2022/12/01 11:36:43;;;;;;;2.57;1.47;;;;;;;6.38;64.06;95009.97;5016528;28;20209;-64
2022/12/01 11:39:31;;;;;;;1.77;1.27;;;;;;;6.37;64.09;95007.50;5017834;28;20222;-64
2022/12/01 11:42:16;;;;;;;1.10;1.00;;;;;;;6.31;63.76;95008.84;5028592;28;20226;-65
2022/12/01 11:44:56;;;;;;;1.30;1.20;;;;;;;6.15;64.23;95008.44;5026664;28;20217;-65
2022/12/01 11:47:26;;;;;;;2.60;1.00;;;;;;;6.16;64.90;95008.28;5039867;28;20235;-64
2022/12/01 11:50:00;;;;;;;1.30;1.10;;;;;;;6.17;64.33;94998.69;5022352;28;20190;-65
2022/12/01 11:52:29;;;;;;;1.73;1.00;;;;;;;6.33;63.83;94998.25;5017030;28;20249;-64
2022/12/01 11:55:19;;;;;;;1.17;1.07;;;;;;;6.37;64.50;95003.09;5042846;28;20707;-65
2022/12/01 11:57:48;;;;;;;1.23;1.00;;;;;;;6.21;64.24;95002.72;5055374;28;20278;-62
2022/12/01 12:00:16;;;;;;;1.60;1.50;;;;;;;6.22;64.94;95006.97;5039942;28;20242;-62